createdAt,value
2022-10-16T00:04:59.244Z,45.58
2022-10-16T00:10:01.519Z,47.17
2022-10-16T00:15:04.318Z,41.83
2022-10-16T00:20:07.207Z,48.83
2022-10-16T00:25:09.893Z,47.25
2022-10-16T00:30:12.559Z,42.38
2022-10-16T00:35:14.960Z,46.15
2022-10-16T00:40:18.087Z,42.80
2022-10-16T00:45:20.463Z,44.88
2022-10-16T00:50:32.506Z,48.17
2022-10-16T00:55:37.656Z,41.28
2022-10-16T01:00:43.055Z,46.55
2022-10-16T01:05:53.306Z,45.53
2022-10-16T01:11:21.181Z,45.38
2022-10-16T01:16:48.126Z,48.20
2022-10-16T01:21:53.275Z,49.90
2022-10-16T01:27:10.732Z,48.70
2022-10-16T01:32:25.458Z,54.90
2022-10-16T01:37:43.413Z,48.83
2022-10-16T01:47:54.358Z,55.97
2022-10-16T01:52:58.160Z,48.03
2022-10-16T01:58:01.650Z,50.67
2022-10-16T02:03:05.124Z,51.95
2022-10-16T02:08:07.823Z,55.17
2022-10-16T02:13:20.844Z,54.30
2022-10-16T02:18:23.804Z,54.90
2022-10-16T02:23:55.573Z,59.28
2022-10-16T02:29:02.540Z,52.92
2022-10-16T02:34:06.204Z,58.88
2022-10-16T02:39:08.883Z,60.65
2022-10-16T02:44:11.262Z,53.05
2022-10-16T02:49:13.519Z,57.33
2022-10-16T02:54:15.814Z,59.35
2022-10-16T02:59:18.101Z,54.05
2022-10-16T03:04:21.651Z,56.58
2022-10-16T03:09:23.880Z,55.28
2022-10-16T03:19:33.742Z,55.78
2022-10-16T03:24:36.097Z,54.05
2022-10-16T03:29:38.455Z,55.17
2022-10-16T03:34:40.809Z,56.97
2022-10-16T03:39:43.679Z,52.97
2022-10-16T03:44:45.970Z,49.95
2022-10-16T03:49:48.279Z,49.58
2022-10-16T03:54:50.636Z,47.67
2022-10-16T03:59:52.933Z,45.00
2022-10-16T04:04:55.202Z,44.63
2022-10-16T04:09:58.992Z,42.00
2022-10-16T04:15:01.356Z,44.85
2022-10-16T04:20:04.539Z,40.20
2022-10-16T04:25:07.276Z,43.35
2022-10-16T04:30:09.962Z,42.00
2022-10-16T04:35:12.233Z,41.72
2022-10-16T04:40:15.392Z,38.67
2022-10-16T04:45:17.763Z,44.97
2022-10-16T04:50:20.173Z,40.50
2022-10-16T04:55:40.808Z,39.45
2022-10-16T05:00:43.259Z,36.70
2022-10-16T05:05:47.176Z,35.17
2022-10-16T05:10:49.475Z,34.22
2022-10-16T05:15:51.825Z,36.78
2022-10-16T05:20:54.139Z,33.88
2022-10-16T05:26:00.592Z,33.83
2022-10-16T05:31:09.875Z,34.88
2022-10-16T05:36:12.341Z,32.20
2022-10-16T05:41:14.628Z,31.05
2022-10-16T05:46:17.687Z,32.42
2022-10-16T05:51:19.955Z,30.45
2022-10-16T05:56:22.405Z,28.75
2022-10-16T06:01:25.458Z,28.98
2022-10-16T06:06:29.063Z,29.27
2022-10-16T06:11:33.039Z,26.50
2022-10-16T06:16:36.932Z,27.77
2022-10-16T06:21:39.353Z,25.55
2022-10-16T06:26:41.615Z,22.70
2022-10-16T06:31:44.151Z,23.58
2022-10-16T06:36:46.554Z,27.33
2022-10-16T06:41:50.006Z,22.73
2022-10-16T06:46:52.517Z,24.65
2022-10-16T06:51:54.840Z,24.85
2022-10-16T06:56:57.076Z,21.80
2022-10-16T07:01:59.388Z,21.35
2022-10-16T07:07:05.599Z,22.80
2022-10-16T07:12:10.881Z,20.92
2022-10-16T07:17:13.273Z,21.52
2022-10-16T07:22:15.691Z,20.42
2022-10-16T07:27:18.179Z,18.42
2022-10-16T07:32:20.492Z,19.00
2022-10-16T07:37:23.394Z,17.90
2022-10-16T07:42:26.180Z,18.90
2022-10-16T07:47:28.957Z,17.48
2022-10-16T07:52:32.472Z,19.10
2022-10-16T07:57:34.835Z,18.83
2022-10-16T08:02:37.138Z,18.55
2022-10-16T08:07:39.450Z,16.73
2022-10-16T08:12:41.729Z,17.58
2022-10-16T08:17:44.160Z,16.73
2022-10-16T08:22:46.452Z,15.77
2022-10-16T08:27:48.912Z,21.65
2022-10-16T08:32:51.795Z,15.15
2022-10-16T08:37:54.120Z,12.52
2022-10-16T08:43:22.225Z,13.20
2022-10-16T08:48:32.786Z,12.57
2022-10-16T08:53:42.220Z,12.05
2022-10-16T08:58:44.802Z,12.40
2022-10-16T09:03:56.159Z,14.40
2022-10-16T09:09:17.149Z,14.13
2022-10-16T09:14:37.293Z,12.73
2022-10-16T09:19:46.173Z,14.07
2022-10-16T09:24:48.673Z,12.02
2022-10-16T09:29:51.093Z,17.05
2022-10-16T09:34:57.385Z,11.07
2022-10-16T09:40:03.760Z,11.98
2022-10-16T09:45:23.057Z,14.05
2022-10-16T09:50:27.772Z,12.10
2022-10-16T09:55:30.097Z,13.57
2022-10-16T10:00:33.223Z,13.52
2022-10-16T10:05:35.553Z,14.80
2022-10-16T10:10:43.921Z,16.85
2022-10-16T10:15:46.320Z,14.10
2022-10-16T10:20:59.066Z,12.98
2022-10-16T10:26:14.909Z,12.23
2022-10-16T10:31:25.201Z,12.15
2022-10-16T10:36:35.972Z,11.27
2022-10-16T10:41:51.800Z,11.10
2022-10-16T10:46:59.595Z,11.73
2022-10-16T10:52:13.917Z,11.98
2022-10-16T10:57:39.752Z,18.15
2022-10-16T11:03:00.657Z,10.90
2022-10-16T11:08:13.162Z,11.13
2022-10-16T11:13:33.625Z,10.45
2022-10-16T11:19:12.254Z,10.82
2022-10-16T11:24:36.753Z,12.38
2022-10-16T11:29:55.742Z,12.80
2022-10-16T11:35:03.755Z,11.93
2022-10-16T11:40:26.332Z,11.52
2022-10-16T11:45:42.145Z,10.07
2022-10-16T11:50:55.289Z,9.55
2022-10-16T11:55:57.958Z,10.75
2022-10-16T12:01:10.675Z,9.30
2022-10-16T12:06:20.331Z,10.07
2022-10-16T12:11:25.697Z,10.23
2022-10-16T12:16:27.995Z,10.93
2022-10-16T12:21:32.647Z,8.32
2022-10-16T12:26:39.119Z,8.93
2022-10-16T12:31:54.755Z,9.57
2022-10-16T12:37:21.197Z,8.50
2022-10-16T12:42:23.931Z,9.45
2022-10-16T12:47:35.766Z,8.00
2022-10-16T12:52:40.950Z,9.27
2022-10-16T12:58:14.745Z,7.93
2022-10-16T13:03:32.921Z,8.02
2022-10-16T13:08:54.031Z,9.63
2022-10-16T13:14:17.411Z,11.98
2022-10-16T13:19:40.715Z,10.02
2022-10-16T13:25:13.913Z,10.23
2022-10-16T13:30:28.246Z,11.52
2022-10-16T13:35:35.535Z,10.35
2022-10-16T13:40:37.948Z,7.15
2022-10-16T13:45:40.392Z,10.23
2022-10-16T13:50:42.753Z,7.47
2022-10-16T13:55:45.067Z,8.43
2022-10-16T14:01:27.337Z,8.70
2022-10-16T14:06:32.699Z,9.10
2022-10-16T14:11:38.470Z,8.88
2022-10-16T14:16:43.118Z,10.65
2022-10-16T14:21:45.666Z,10.75
2022-10-16T14:26:51.234Z,10.73
2022-10-16T14:32:04.645Z,11.35
2022-10-16T14:37:30.753Z,10.20
2022-10-16T14:42:33.455Z,8.88
2022-10-16T14:47:36.127Z,10.13
2022-10-16T14:52:38.532Z,10.70
2022-10-16T14:57:42.682Z,9.60
2022-10-16T15:02:46.167Z,8.70
2022-10-16T15:07:48.619Z,15.18
2022-10-16T15:12:51.346Z,11.70
2022-10-16T15:17:59.669Z,20.58
2022-10-16T15:23:10.978Z,9.38
2022-10-16T15:28:14.515Z,11.90
2022-10-16T15:33:19.277Z,10.05
2022-10-16T15:38:23.206Z,10.30
2022-10-16T15:43:25.615Z,8.95
2022-10-16T15:48:28.076Z,10.02
2022-10-16T15:53:30.456Z,10.88
2022-10-16T15:58:33.043Z,13.43
2022-10-16T16:03:36.893Z,16.63
2022-10-16T16:08:39.852Z,26.95
2022-10-16T16:13:42.805Z,79.95
2022-10-16T16:18:45.659Z,45.15
2022-10-16T16:23:48.111Z,34.63
2022-10-16T16:28:50.636Z,30.00
2022-10-16T16:33:53.254Z,17.35
2022-10-16T16:38:55.645Z,20.02
2022-10-16T16:44:04.509Z,22.67
2022-10-16T16:49:07.929Z,25.13
2022-10-16T16:54:12.979Z,26.40
2022-10-16T16:59:18.856Z,53.65
2022-10-16T17:04:21.204Z,41.50
2022-10-16T17:09:23.874Z,38.72
2022-10-16T17:14:26.237Z,28.35
2022-10-16T17:19:28.625Z,25.85
2022-10-16T17:24:30.929Z,24.30
2022-10-16T17:29:33.282Z,19.02
2022-10-16T17:34:35.763Z,21.63
2022-10-16T17:39:39.073Z,17.98
2022-10-16T17:44:41.378Z,18.38
2022-10-16T17:49:43.716Z,19.15
2022-10-16T17:54:46.151Z,22.45
2022-10-16T17:59:48.634Z,20.00
2022-10-16T18:04:52.111Z,18.88
2022-10-16T18:10:10.602Z,19.30
2022-10-16T18:15:14.262Z,17.75
2022-10-16T18:20:16.673Z,19.25
2022-10-16T18:25:19.007Z,19.40
2022-10-16T18:30:21.837Z,17.50
2022-10-16T18:35:24.173Z,21.92
2022-10-16T18:40:26.578Z,15.88
2022-10-16T18:45:28.895Z,17.30
2022-10-16T18:50:31.408Z,18.52
2022-10-16T18:55:33.971Z,25.20
2022-10-16T19:00:36.408Z,19.45
2022-10-16T19:05:38.770Z,20.20
2022-10-16T19:10:44.759Z,19.75
2022-10-16T19:15:57.980Z,22.42
2022-10-16T19:21:02.902Z,23.08
2022-10-16T19:26:10.871Z,22.00
2022-10-16T19:31:19.286Z,23.73
2022-10-16T19:36:27.374Z,23.77
2022-10-16T19:41:30.199Z,23.05
2022-10-16T19:46:33.790Z,20.67
2022-10-16T19:51:36.692Z,21.77
2022-10-16T19:56:39.430Z,22.23
2022-10-16T20:01:41.802Z,22.55
2022-10-16T20:06:44.256Z,19.45
2022-10-16T20:11:46.633Z,23.42
2022-10-16T20:16:49.014Z,21.40
2022-10-16T20:21:51.326Z,19.60
2022-10-16T20:26:53.642Z,19.08
2022-10-16T20:31:55.964Z,20.02
2022-10-16T20:36:58.247Z,20.77
2022-10-16T20:42:00.493Z,17.77
2022-10-16T20:47:02.784Z,18.67
2022-10-16T20:52:05.166Z,16.20
2022-10-16T20:57:07.765Z,17.55
2022-10-16T21:02:14.275Z,21.30
2022-10-16T21:07:17.919Z,22.40
2022-10-16T21:12:20.210Z,21.63
2022-10-16T21:17:22.553Z,22.92
2022-10-16T21:22:25.099Z,20.23
2022-10-16T21:27:27.938Z,20.10
2022-10-16T21:32:30.510Z,18.17
2022-10-16T21:37:33.289Z,18.60
2022-10-16T21:42:35.521Z,21.27
2022-10-16T21:47:37.780Z,20.90
2022-10-16T21:52:40.026Z,18.77
2022-10-16T21:57:42.339Z,17.20
2022-10-16T22:02:44.596Z,17.00
2022-10-16T22:07:46.849Z,18.30
2022-10-16T22:12:49.173Z,18.77
2022-10-16T22:17:51.676Z,15.98
2022-10-16T22:22:53.909Z,17.85
2022-10-16T22:27:56.223Z,18.40
2022-10-16T22:32:58.500Z,17.55
2022-10-16T22:38:00.823Z,21.05
2022-10-16T22:43:03.669Z,15.73
2022-10-16T22:48:06.189Z,18.25
2022-10-16T22:53:08.429Z,15.25
2022-10-16T22:58:10.866Z,16.60
2022-10-16T23:03:13.261Z,17.23
2022-10-16T23:08:15.939Z,17.90
2022-10-16T23:13:18.300Z,18.65
2022-10-16T23:18:20.929Z,19.88
2022-10-16T23:23:23.264Z,19.77
2022-10-16T23:28:25.830Z,18.48
2022-10-16T23:33:28.083Z,24.98
2022-10-16T23:38:30.353Z,18.45
2022-10-16T23:43:32.772Z,22.05
2022-10-16T23:48:35.557Z,17.90
2022-10-16T23:53:38.601Z,21.23
2022-10-16T23:58:41.684Z,25.15
